createdAt,value
2023-09-02T00:00:01.898Z,289.149
2023-09-02T00:05:01.890Z,210.311
2023-09-02T00:10:02.026Z,209.709
2023-09-02T00:15:01.956Z,202.707
2023-09-02T00:20:01.974Z,197.25900000000001
2023-09-02T00:25:01.976Z,195.827
2023-09-02T00:30:01.942Z,275.05
2023-09-02T00:35:01.908Z,312.06
2023-09-02T00:40:01.928Z,306.344
2023-09-02T00:45:01.951Z,241.895
2023-09-02T00:50:01.967Z,170.526
2023-09-02T00:55:01.957Z,169.922
2023-09-02T01:00:02.139Z,169.57500000000002
2023-09-02T01:05:01.956Z,169.691
2023-09-02T01:10:01.985Z,186.43200000000002
2023-09-02T01:15:02.127Z,291.766
2023-09-02T01:20:01.952Z,309.646
2023-09-02T01:25:01.993Z,303.872
2023-09-02T01:30:02.165Z,243.383
2023-09-02T01:35:02.050Z,191.02700000000002
2023-09-02T01:40:01.978Z,191.89000000000001
2023-09-02T01:45:02.108Z,198.84300000000002
2023-09-02T01:50:02.010Z,201.196
2023-09-02T01:55:02.020Z,203.304
2023-09-02T02:00:02.178Z,294.992
2023-09-02T02:05:01.978Z,284.302
2023-09-02T02:10:01.993Z,289.57
2023-09-02T02:15:02.158Z,225.794
2023-09-02T02:20:01.997Z,192.45000000000002
2023-09-02T02:25:02.060Z,192.01
2023-09-02T02:30:02.126Z,190.947
2023-09-02T02:35:02.027Z,190.191
2023-09-02T02:40:02.045Z,175.258
2023-09-02T02:45:02.089Z,291.657
2023-09-02T02:50:02.072Z,284.882
2023-09-02T02:55:02.152Z,280.072
2023-09-02T03:00:02.081Z,179.543
2023-09-02T03:05:02.226Z,172.151
2023-09-02T03:10:02.038Z,193.19400000000002
2023-09-02T03:15:02.120Z,192.803
2023-09-02T03:20:02.274Z,191.928
2023-09-02T03:25:02.089Z,216.895
2023-09-02T03:30:02.077Z,313.46
2023-09-02T03:35:02.211Z,314.056
2023-09-02T03:40:02.128Z,312.345
2023-09-02T03:45:02.070Z,212.067
2023-09-02T03:50:02.267Z,180.037
2023-09-02T03:55:02.084Z,168.156
2023-09-02T04:00:02.304Z,180.483
2023-09-02T04:05:02.140Z,192.999
2023-09-02T04:10:02.106Z,220.213
2023-09-02T04:15:02.142Z,313.533
2023-09-02T04:20:02.153Z,306.156
2023-09-02T04:25:02.344Z,293.952
2023-09-02T04:30:02.147Z,183.377
2023-09-02T04:35:02.099Z,170.90200000000002
2023-09-02T04:40:02.248Z,171.184
2023-09-02T04:45:02.158Z,170.397
2023-09-02T04:50:02.168Z,170.447
2023-09-02T04:55:02.257Z,202.131
2023-09-02T05:00:02.193Z,315.165
2023-09-02T05:05:02.180Z,309.063
2023-09-02T05:10:02.184Z,283.837
2023-09-02T05:15:02.139Z,192.891
2023-09-02T05:20:02.269Z,191.756
2023-09-02T05:25:02.366Z,192.386
2023-09-02T05:30:02.313Z,199.33
2023-09-02T05:35:02.202Z,204.242
2023-09-02T05:40:02.206Z,1885.075
2023-09-02T05:45:02.333Z,3091.891
2023-09-02T05:50:02.195Z,2377.487
2023-09-02T05:55:03.248Z,337.28000000000003
2023-09-02T06:00:02.401Z,326.982
2023-09-02T06:05:02.209Z,215.284
2023-09-02T06:10:02.249Z,207.014
2023-09-02T06:15:02.342Z,206.703
2023-09-02T06:20:02.277Z,206.372
2023-09-02T06:25:02.250Z,276.737
2023-09-02T06:30:02.274Z,303.484
2023-09-02T06:35:02.228Z,296.605
2023-09-02T06:40:02.220Z,301.456
2023-09-02T06:45:02.238Z,330.771
2023-09-02T06:50:02.311Z,224.693
2023-09-02T06:55:02.239Z,312.721
2023-09-02T07:00:02.265Z,333.711
2023-09-02T07:05:02.427Z,351.476
2023-09-02T07:10:02.284Z,426.633
2023-09-02T07:15:02.278Z,501.445
2023-09-02T07:20:02.429Z,473.63800000000003
2023-09-02T07:25:02.267Z,367.317
2023-09-02T07:30:02.274Z,316.598
2023-09-02T07:35:02.485Z,820.606
2023-09-02T07:40:02.287Z,3400.318
2023-09-02T07:45:02.286Z,3782.911
2023-09-02T07:50:02.427Z,2499.863
2023-09-02T07:55:02.672Z,1560.929
2023-09-02T08:00:02.416Z,827.99
2023-09-02T08:05:02.606Z,739.112
2023-09-02T08:10:02.333Z,329.84000000000003
2023-09-02T08:15:02.318Z,1820.295
2023-09-02T08:20:02.418Z,3165.948
2023-09-02T08:25:02.329Z,1769.1190000000001
2023-09-02T08:30:02.416Z,364.70300000000003
2023-09-02T08:35:02.385Z,555.696
2023-09-02T08:40:02.567Z,478.67400000000004
2023-09-02T08:45:02.376Z,511.976
2023-09-02T08:50:02.404Z,816.148
2023-09-02T08:55:02.380Z,928.917
2023-09-02T09:00:02.412Z,672.017
2023-09-02T09:05:02.508Z,324.198
2023-09-02T09:10:02.335Z,1158.501
2023-09-02T09:15:02.410Z,1740.51
2023-09-02T09:20:02.652Z,4019.993
2023-09-02T09:25:02.360Z,3798.947
2023-09-02T09:30:02.447Z,1716.163
2023-09-02T09:35:02.511Z,2111.973
2023-09-02T09:40:02.380Z,1512.752
2023-09-02T09:45:02.410Z,1606.27
2023-09-02T09:50:02.608Z,1744.634
2023-09-02T09:55:02.403Z,2110.913
2023-09-02T10:00:02.561Z,1844.451
2023-09-02T10:05:02.553Z,2508.261
2023-09-02T10:10:02.409Z,2301.617
2023-09-02T10:15:02.413Z,1994.3
2023-09-02T10:20:02.760Z,2399.605
2023-09-02T10:25:02.448Z,3028.872
2023-09-02T10:30:02.582Z,4025.094
2023-09-02T10:35:02.433Z,2044.816
2023-09-02T10:40:02.446Z,923.986
2023-09-02T10:45:02.659Z,1271.003
2023-09-02T10:50:02.508Z,1005.921
2023-09-02T10:55:02.466Z,3471.946
2023-09-02T11:00:02.439Z,3791.518
2023-09-02T11:05:02.434Z,3955.199
2023-09-02T11:10:02.587Z,2728.152
2023-09-02T11:15:02.500Z,2419.7490000000003
2023-09-02T11:20:02.521Z,4372.5380000000005
2023-09-02T11:25:02.681Z,4662.875
2023-09-02T11:30:02.464Z,4233.562
2023-09-02T11:35:02.624Z,1825.4370000000001
2023-09-02T11:40:02.485Z,1867.136
2023-09-02T11:45:02.547Z,1831.3790000000001
2023-09-02T11:50:02.499Z,1945.646
2023-09-02T11:55:02.528Z,1873.7
2023-09-02T12:00:02.539Z,1711.551
2023-09-02T12:05:02.597Z,1662.594
2023-09-02T12:20:02.764Z,2040.857
2023-09-02T12:25:02.596Z,1801.404
2023-09-02T12:30:02.636Z,3966.786
2023-09-02T12:35:02.605Z,3826.202
2023-09-02T12:40:02.516Z,3024.808
2023-09-02T12:45:03.680Z,1499.94
2023-09-02T12:50:02.573Z,799.681
2023-09-02T12:55:02.722Z,746.8770000000001
2023-09-02T13:00:02.518Z,844.807
2023-09-02T13:05:02.787Z,873.54
2023-09-02T13:10:02.753Z,826.434
2023-09-02T13:15:02.594Z,741.6610000000001
2023-09-02T13:20:02.598Z,724.291
2023-09-02T13:25:02.585Z,723.618
2023-09-02T13:30:02.603Z,734.214
2023-09-02T13:35:02.594Z,806.139
2023-09-02T13:40:02.739Z,835.822
2023-09-02T13:45:02.595Z,839.971
2023-09-02T13:50:03.141Z,716.735
2023-09-02T13:55:02.692Z,715.198
2023-09-02T14:00:02.690Z,724.577
2023-09-02T14:05:02.596Z,688.029
2023-09-02T14:10:02.639Z,774.221
2023-09-02T14:15:02.770Z,810.836
2023-09-02T14:20:02.679Z,816.514
2023-09-02T14:25:02.790Z,737.725
2023-09-02T14:30:02.660Z,725.3770000000001
2023-09-02T14:35:02.659Z,721.044
2023-09-02T14:40:02.615Z,698.725
2023-09-02T14:45:02.609Z,772.937
2023-09-02T14:50:02.651Z,811.2
2023-09-02T14:55:02.694Z,788.298
2023-09-02T15:00:02.867Z,689.919
2023-09-02T15:05:02.681Z,687.92
2023-09-02T15:10:02.660Z,686.907
2023-09-02T15:15:01.124Z,684.371
2023-09-02T15:20:01.179Z,756.3000000000001
2023-09-02T15:25:01.107Z,800.057
2023-09-02T15:30:01.272Z,793.164
2023-09-02T15:35:01.136Z,663.049
2023-09-02T15:40:01.223Z,656.626
2023-09-02T15:45:01.108Z,656.612
2023-09-02T15:50:01.192Z,668.968
2023-09-02T15:55:01.327Z,760.47
2023-09-02T16:00:01.162Z,807.2810000000001
2023-09-02T16:05:01.277Z,800.174
2023-09-02T16:10:01.153Z,686.2570000000001
2023-09-02T16:15:01.166Z,674.962
2023-09-02T16:20:01.357Z,672.495
2023-09-02T16:25:01.165Z,673.243
2023-09-02T16:30:01.276Z,746.731
2023-09-02T16:35:01.242Z,787.277
2023-09-02T16:40:01.289Z,775.359
2023-09-02T16:45:01.373Z,666.737
2023-09-02T16:50:01.225Z,665.279
2023-09-02T16:55:01.179Z,658.1850000000001
2023-09-02T17:00:01.551Z,641.516
2023-09-02T17:05:01.242Z,727.889
2023-09-02T17:10:01.344Z,761.7280000000001
2023-09-02T17:15:01.249Z,734.726
2023-09-02T17:20:01.234Z,872.375
2023-09-02T17:25:01.394Z,671.229
2023-09-02T17:30:01.292Z,678.73
2023-09-02T17:35:01.305Z,679.722
2023-09-02T17:40:01.465Z,775.995
2023-09-02T17:45:01.224Z,785.869
2023-09-02T17:50:01.338Z,765.322
2023-09-02T17:55:01.288Z,665.332
2023-09-02T18:00:01.275Z,663.455
2023-09-02T18:05:01.404Z,661.306
2023-09-02T18:10:01.304Z,659.412
2023-09-02T18:15:01.335Z,763.77
2023-09-02T18:20:01.336Z,773.835
2023-09-02T18:25:01.271Z,705.539
2023-09-02T18:30:01.268Z,634.492
2023-09-02T18:35:01.250Z,634.39
2023-09-02T18:40:01.276Z,634.266
2023-09-02T18:45:01.414Z,633.383
2023-09-02T18:50:01.312Z,756.636
2023-09-02T18:55:01.358Z,761.2280000000001
2023-09-02T19:00:01.462Z,724.279
2023-09-02T19:05:01.366Z,671.868
2023-09-02T19:10:01.316Z,673.375
2023-09-02T19:15:01.502Z,670.7620000000001
2023-09-02T19:20:01.344Z,684.846
2023-09-02T19:25:01.300Z,784.373
2023-09-02T19:30:01.321Z,776.7570000000001
2023-09-02T19:35:01.320Z,699.414
2023-09-02T19:40:01.348Z,390.713
2023-09-02T19:45:01.353Z,208.088
2023-09-02T19:50:01.375Z,197.668
2023-09-02T19:55:01.485Z,227.59
2023-09-02T20:00:01.339Z,306.921
2023-09-02T20:05:01.447Z,299.592
2023-09-02T20:10:01.519Z,234.562
2023-09-02T20:15:01.385Z,184.601
2023-09-02T20:20:01.423Z,184.298
2023-09-02T20:25:01.571Z,199.00300000000001
2023-09-02T20:30:01.415Z,228.749
2023-09-02T20:35:01.423Z,331.794
2023-09-02T20:40:01.549Z,331.99
2023-09-02T20:45:01.479Z,298.264
2023-09-02T20:50:01.385Z,221.157
2023-09-02T20:55:01.576Z,217.073
2023-09-02T21:00:01.443Z,208.05100000000002
2023-09-02T21:05:01.445Z,209.90200000000002
2023-09-02T21:10:01.404Z,303.608
2023-09-02T21:15:01.454Z,327.254
2023-09-02T21:20:01.631Z,315.083
2023-09-02T21:25:01.439Z,209.181
2023-09-02T21:30:01.469Z,186.798
2023-09-02T21:35:01.592Z,187.04500000000002
2023-09-02T21:40:01.438Z,186.877
2023-09-02T21:45:01.537Z,204.52100000000002
2023-09-02T21:50:01.696Z,309.543
2023-09-02T21:55:01.402Z,309.623
2023-09-02T22:00:01.493Z,282.161
2023-09-02T22:05:01.692Z,210.537
2023-09-02T22:10:01.552Z,209.385
2023-09-02T22:15:01.516Z,208.946
2023-09-02T22:20:01.497Z,212.13
2023-09-02T22:25:01.469Z,305.821
2023-09-02T22:30:01.613Z,339.723
2023-09-02T22:35:01.487Z,335.558
2023-09-02T22:40:01.544Z,196.255
2023-09-02T22:45:01.656Z,186.715
2023-09-02T22:50:01.513Z,203.178
2023-09-02T22:55:01.490Z,211.892
2023-09-02T23:00:01.668Z,246.589
2023-09-02T23:05:01.512Z,332.395
2023-09-02T23:10:01.600Z,325.26300000000003
2023-09-02T23:15:01.713Z,279.762
2023-09-02T23:20:01.577Z,186.572
2023-09-02T23:25:01.609Z,186.52100000000002
2023-09-02T23:30:01.506Z,187.031
2023-09-02T23:35:01.496Z,187.15800000000002
2023-09-02T23:40:01.653Z,263.07
2023-09-02T23:45:01.529Z,306.747
2023-09-02T23:50:01.552Z,298.773
2023-09-02T23:55:01.658Z,236.56300000000002
